チタ の空港の天気 - METARとTAF

チタ・カダラ空港 ( UIAA / HTA ) - ロシア チタ
飛行場実況気象(Metar)
観測時間05/27 07:30 YAKT (05/26 22:30 UTC)
風向・風速南 2m/s
視程10km以上
天気現象
全天の4割程度の雲 雲底高度 1400m
気温12℃
湿度67%
気圧1002hPa
METARUIAA 262230Z 19002MPS 9999 SCT046 12/06 Q1002 R29/70D NOSIG RMK QFE694/0925
過去の天気等 Google飛行場航空写真 Wunderground天気予報

過去48時間のMETAR

飛行場予報(TAF)
発表時間: 5/27 05:00 YAKT (5/26 20:00 UTC)
予報対象時間: 27日6時 YAKT ~ 28日6時 YAKT
風向・風速南西 5m/s 瞬間風速 10m/s
視程10km以上
全天の4割程度の積乱雲 雲底高度 1010m
27日6時 YAKT ~ 27日12時 YAKT に一時的に
風向・風速西 3m/s 瞬間風速 8m/s
27日12時 YAKT ~ 27日21時 YAKT に一時的に
風向・風速不定 10m/s
天気現象弱い雷雨
27日22時 YAKT ~ 27日24時 YAKT に徐々に
風向・風速北西 7m/s 瞬間風速 13m/s
TAF UIAA 262000Z 2621/2721 22005G10MPS 9999 SCT033CB
TEMPO 2621/2703 28003G08MPS
TEMPO 2703/2712 VRB10MPS -TSRA
BECMG 2713/2715 32007G13MPS